Terminal Aerodrome Forecast
Issued by NWS Sioux Falls, SD

Home | Current Version | Previous Version | Graphics & Text | Print | Product List | Glossary On
Versions: 1 2 3 4 5 6 7 8 9 10 11 12 13 14 15 16
000
FTUS43 KFSD 201720
TAFHON
TAF
KHON 201720Z 2018/2118 17012G18KT P6SM FEW250
     FM210200 14008KT P6SM FEW250
     FM210900 16005KT P6SM FEW250
     FM211400 06007KT P6SM FEW250=

USA.gov is the U.S. government's official web portal to all federal, state and local government web resources and services.